Latest Weather Observations for Nhill Aerodrome

IDV60801

Issued at 11:42 am EST Saturday 1 October 2022 (issued every 10 minutes, with the page automatically refreshed every 10 minutes)

About weather observations | Map of weather stations | Latest weather observations for VIC | Other Formats
Station Details ID: 078015 Name: NHILL AERODROME Lat: -36.31 Lon: 141.65 Height: 138.9 m
Data from the previous 72 hours. | See also: Recent months at Nhill Aerodrome
Date/Time
EST
Temp
°C
App
Temp
°C
Dew
Point
°C
Rel
Hum
%
Delta-T
°C
Wind Press
QNH
hPa
Press
MSL
hPa
Rain since
9am
mm
Dir  Spd
km/h
Gust
km/h
Spd
kts
Gust
kts
01/11:30am 18.3 16.1 10.9 62 4.0 NE 13 20 7 11 1023.0 1022.9 0.0
01/11:00am 17.7 16.3 11.0 65 3.6 NE 9 17 5 9 1023.3 1023.2 0.0
01/10:30am 16.4 13.8 10.7 69 3.1 ENE 15 20 8 11 1023.9 1023.8 0.0
01/10:00am 15.8 13.5 10.6 71 2.8 ENE 13 20 7 11 1024.2 1024.1 0.0
01/09:30am 14.6 11.2 9.2 70 2.8 ENE 17 26 9 14 1024.4 1024.5 0.0
01/09:00am 13.9 10.2 9.3 74 2.4 E 19 30 10 16 1024.3 1024.4 0.0
01/08:30am 12.7 8.7 9.0 78 1.9 E 20 26 11 14 1024.4 1024.5 0.0
01/08:00am 12.0 9.6 8.8 81 1.6 ESE 11 17 6 9 1024.4 1024.5 0.0
01/07:30am 10.7 8.2 8.3 85 1.2 ESE 11 15 6 8 1024.2 1024.3 0.0
01/07:00am 9.2 6.2 7.6 90 0.8 E 13 20 7 11 1024.0 1024.1 0.0
01/06:30am 8.7 4.4 7.2 90 0.7 E 19 24 10 13 1023.8 1023.9 0.0
01/06:00am 9.0 4.8 7.5 90 0.7 E 19 24 10 13 1023.6 1023.7 0.0
01/05:30am 9.1 5.3 7.5 90 0.8 ESE 17 20 9 11 1023.5 1023.6 0.0
01/05:00am 9.4 5.6 7.7 89 0.8 E 17 20 9 11 1023.4 1023.5 0.0
01/04:30am 9.4 6.0 7.8 90 0.8 ESE 15 19 8 10 1023.3 1023.4 0.0
01/04:00am 9.3 5.9 7.7 90 0.8 ESE 15 19 8 10 1023.3 1023.4 0.0
01/03:30am 9.2 6.2 7.8 91 0.7 ESE 13 15 7 8 1023.6 1023.7 0.0
01/03:00am 9.1 5.7 7.7 91 0.7 ESE 15 19 8 10 1023.7 1023.8 0.0
01/02:30am 9.5 6.2 7.9 90 0.8 ESE 15 19 8 10 1023.9 1024.0 0.0
01/02:00am 9.9 6.3 8.3 90 0.8 ESE 17 20 9 11 1024.1 1024.2 0.0
01/01:30am 10.3 6.8 8.6 89 0.8 ESE 17 22 9 12 1024.4 1024.5 0.0
01/01:00am 10.4 6.9 8.7 89 0.8 ESE 17 22 9 12 1024.5 1024.6 0.0
01/12:30am 10.5 7.8 8.9 90 0.8 SE 13 19 7 10 1024.6 1024.7 0.0
01/12:00am 10.2 7.8 8.8 91 0.7 ESE 11 17 6 9 1024.6 1024.7 0.0
 
Date/Time
EST
Temp
°C
App
Temp
°C
Dew
Point
°C
Rel
Hum
%
Delta-T
°C
Wind Press
QNH
hPa
Press
MSL
hPa
Rain since
9am
mm
Dir  Spd
km/h
Gust
km/h
Spd
kts
Gust
kts
30/11:30pm 9.8 7.3 8.2 90 0.8 ESE 11 15 6 8 1024.6 1024.7 0.0
30/11:00pm 11.1 8.4 9.0 87 1.0 E 13 15 7 8 1024.6 1024.7 0.0
30/10:30pm 11.6 8.3 9.5 87 1.1 ESE 17 20 9 11 1024.5 1024.6 0.0
30/10:00pm 11.8 8.1 9.5 86 1.2 ESE 19 22 10 12 1024.6 1024.7 0.0
30/09:30pm 11.6 8.1 8.6 82 1.5 ESE 17 22 9 12 1024.7 1024.8 0.0
30/09:00pm 12.1 9.4 8.8 80 1.6 ESE 13 13 7 7 1024.6 1024.7 0.0
30/08:30pm 12.2 9.5 8.9 80 1.7 ESE 13 15 7 8 1024.5 1024.6 0.0
30/08:00pm 12.7 10.1 9.2 79 1.8 ESE 13 15 7 8 1024.3 1024.4 0.0
30/07:30pm 13.0 10.5 9.6 80 1.7 ESE 13 13 7 7 1024.1 1024.2 0.0
30/07:00pm 13.4 11.0 10.2 81 1.7 E 13 15 7 8 1024.1 1024.2 0.0
30/06:30pm 14.9 12.6 10.5 75 2.3 E 13 15 7 8 1024.0 1024.1 0.0
30/06:00pm 16.7 14.4 10.5 67 3.3 E 13 17 7 9 1024.0 1024.1 0.0
30/05:30pm 17.6 14.5 10.2 62 4.0 E 17 20 9 11 1024.0 1024.1 0.0
30/05:00pm 18.3 15.2 10.4 60 4.2 E 17 22 9 12 1023.9 1024.0 0.0
30/04:30pm 18.3 15.5 9.9 58 4.5 ESE 15 22 8 12 1023.9 1024.0 0.0
30/04:00pm 18.8 15.9 9.8 56 4.8 ESE 15 26 8 14 1024.1 1024.2 0.0
30/03:30pm 19.0 16.1 9.5 54 5.1 ENE 15 20 8 11 1024.5 1024.6 0.0
30/03:00pm 17.5 14.3 9.9 61 4.0 E 17 24 9 13 1024.7 1024.8 0.0
30/02:30pm 18.4 15.1 10.8 61 4.1 ESE 19 28 10 15 1024.9 1025.0 0.0
30/02:00pm 18.2 15.2 9.3 56 4.7 E 15 22 8 12 1025.2 1025.3 0.0
30/01:30pm 17.3 14.4 9.7 61 4.0 ESE 15 20 8 11 1025.7 1025.8 0.0
30/01:00pm 16.8 14.1 10.2 65 3.5 ESE 15 20 8 11 1025.9 1026.0 0.0
30/12:30pm 17.2 14.8 9.9 62 3.9 E 13 20 7 11 1026.2 1026.3 0.0
30/12:00pm 17.2 15.1 9.9 62 3.8 ENE 11 20 6 11 1026.7 1026.8 0.0
30/11:30am 16.3 12.9 9.0 62 3.8 E 17 22 9 12 1027.1 1027.2 0.0
30/11:00am 15.6 12.1 8.6 63 3.6 ENE 17 26 9 14 1027.1 1027.2 0.0
30/10:30am 15.4 11.8 9.7 69 3.0 E 19 26 10 14 1027.3 1027.4 0.0
30/10:00am 14.5 10.7 9.1 70 2.8 E 19 26 10 14 1027.4 1027.5 0.0
30/09:30am 13.6 9.7 8.7 72 2.5 ESE 19 24 10 13 1027.4 1027.5 0.0
30/09:00am 12.4 7.9 8.7 78 1.8 ESE 22 28 12 15 1027.5 1027.6 0.2
30/08:30am 11.6 7.7 8.6 82 1.5 ESE 19 28 10 15 1027.5 1027.6 0.2
30/08:00am 9.3 6.9 8.8 97 0.2 SSE 11 13 6 7 1027.4 1027.5 0.2
30/07:30am 7.6 4.9 7.3 98 0.1 SSE 11 13 6 7 1027.2 1027.3 0.2
30/07:00am 6.6 4.0 6.3 98 0.1 SSE 9 13 5 7 1026.8 1026.9 0.2
30/06:30am 5.6 2.4 5.2 97 0.2 SSE 11 13 6 7 1026.5 1026.6 0.2
30/06:00am 5.0 2.1 4.6 97 0.2 SSE 9 11 5 6 1026.2 1026.3 0.2
30/05:30am 5.2 2.3 4.8 97 0.2 SSE 9 11 5 6 1025.7 1025.8 0.2
30/05:00am 5.4 2.2 5.0 97 0.2 S 11 15 6 8 1025.5 1025.6 0.2
30/04:30am 5.5 1.9 5.1 97 0.2 SSE 13 13 7 7 1025.3 1025.4 0.2
30/04:00am 5.8 2.3 5.4 97 0.2 SSE 13 15 7 8 1025.1 1025.2 0.2
30/03:30am 5.9 2.4 5.3 96 0.3 SSE 13 15 7 8 1025.2 1025.3 0.2
30/03:00am 6.4 2.6 5.8 96 0.3 SSE 15 15 8 8 1025.4 1025.5 0.2
30/02:30am 6.3 2.9 5.7 96 0.3 SSE 13 15 7 8 1025.7 1025.8 0.2
30/02:00am 6.5 3.1 5.8 95 0.3 SSE 13 15 7 8 1026.0 1026.1 0.2
30/01:30am 7.0 3.3 6.1 94 0.4 SSE 15 17 8 9 1026.3 1026.4 0.2
30/01:00am 7.2 3.9 6.3 94 0.4 S 13 15 7 8 1026.5 1026.6 0.2
30/12:30am 7.6 4.3 6.5 93 0.5 S 13 15 7 8 1026.8 1026.9 0.2
30/12:00am 8.1 4.5 6.9 92 0.6 S 15 15 8 8 1026.8 1026.9 0.2
 
Date/Time
EST
Temp
°C
App
Temp
°C
Dew
Point
°C
Rel
Hum
%
Delta-T
°C
Wind Press
QNH
hPa
Press
MSL
hPa
Rain since
9am
mm
Dir  Spd
km/h
Gust
km/h
Spd
kts
Gust
kts
29/11:30pm 8.7 5.6 7.2 90 0.7 S 13 15 7 8 1026.9 1027.0 0.2
29/11:00pm 9.4 6.0 7.5 88 0.9 SSE 15 20 8 11 1027.0 1027.1 0.2
29/10:30pm 8.8 5.2 6.9 88 0.9 S 15 17 8 9 1027.1 1027.2 0.2
29/10:00pm 8.5 4.8 6.5 87 0.9 SSE 15 17 8 9 1027.0 1027.1 0.2
29/09:30pm 8.5 5.2 6.5 87 0.9 SSE 13 15 7 8 1027.0 1027.1 0.2
29/09:00pm 9.6 6.9 7.2 85 1.1 SE 11 13 6 7 1026.8 1026.9 0.2
29/08:30pm 10.0 6.5 7.3 83 1.3 SSE 15 15 8 8 1026.5 1026.6 0.2
29/08:00pm 10.5 7.0 7.4 81 1.5 SSE 15 17 8 9 1026.1 1026.2 0.2
29/07:30pm 11.3 7.9 7.8 79 1.7 SSE 15 19 8 10 1025.9 1026.0 0.2
29/07:00pm 11.0 8.1 8.1 82 1.4 SSE 13 17 7 9 1025.6 1025.7 0.2
29/06:30pm 12.6 10.1 8.1 74 2.2 SSE 11 15 6 8 1025.4 1025.5 0.2
29/06:00pm 14.6 10.5 7.9 64 3.3 SSE 19 24 10 13 1025.0 1025.1 0.2
29/05:30pm 16.1 11.7 7.6 57 4.3 SSE 20 35 11 19 1024.7 1024.8 0.2
29/05:00pm 16.5 11.3 7.4 55 4.6 S 24 30 13 16 1024.4 1024.5 0.2
29/04:30pm 17.1 12.8 7.7 54 4.8 SSE 20 28 11 15 1024.2 1024.3 0.2
29/04:00pm 17.1 11.9 7.2 52 5.0 S 24 33 13 18 1024.4 1024.5 0.2
29/03:30pm 17.1 12.2 6.9 51 5.1 S 22 30 12 16 1024.5 1024.6 0.2
29/03:00pm 16.1 11.5 6.5 53 4.7 SSE 20 26 11 14 1024.7 1024.8 0.2
29/02:30pm 16.9 12.5 7.5 54 4.7 SSE 20 28 11 15 1024.8 1024.9 0.2
29/02:00pm 16.4 12.0 7.6 56 4.4 S 20 35 11 19 1025.1 1025.2 0.2
29/01:30pm 16.8 13.2 8.2 57 4.4 S 17 24 9 13 1025.1 1025.2 0.2
29/01:00pm 16.4 12.2 7.6 56 4.4 SSE 19 28 10 15 1025.3 1025.4 0.2
29/12:30pm 15.1 11.2 7.2 59 3.9 SSE 17 24 9 13 1025.7 1025.8 0.2
29/12:00pm 14.4 10.5 7.0 61 3.6 S 17 26 9 14 1025.7 1025.8 0.2
29/11:30am 14.8 10.6 7.6 62 3.6 SE 19 24 10 13 1025.9 1026.0 0.2
29/11:00am 13.7 10.2 7.2 65 3.2 SSE 15 26 8 14 1026.2 1026.3 0.2
29/10:30am 13.0 9.0 6.6 65 3.1 SE 17 24 9 13 1026.3 1026.4 0.2
29/10:00am 12.9 8.5 6.5 65 3.1 SSE 19 26 10 14 1026.5 1026.6 0.0
29/09:30am 12.4 8.2 7.3 71 2.5 SSE 19 26 10 14 1026.5 1026.6 0.0
29/09:00am 11.2 7.0 5.9 70 2.5 SSE 17 24 9 13 1026.4 1026.5 0.0
29/08:30am 10.3 7.3 5.9 74 2.0 S 11 22 6 12 1026.5 1026.6 0.0
29/08:00am 8.6 6.0 6.1 84 1.1 SW 9 11 5 6 1026.0 1026.1 0.0
29/07:30am 7.1 4.9 5.1 87 0.9 SSW 6 9 3 5 1025.9 1026.0 0.0
29/07:00am 5.9 3.3 4.2 89 0.7 SSW 7 9 4 5 1025.6 1025.7 0.0
29/06:30am 5.6 2.5 3.6 87 0.8 S 9 11 5 6 1025.2 1025.3 0.0
29/06:00am 5.5 2.4 3.7 88 0.8 S 9 15 5 8 1024.6 1024.7 0.0
29/05:30am 6.1 2.7 4.1 87 0.9 SSE 11 13 6 7 1024.3 1024.4 0.0
29/05:00am 6.9 2.8 4.4 84 1.1 SSE 15 19 8 10 1024.1 1024.2 0.0
29/04:30am 7.0 2.9 4.5 84 1.1 S 15 19 8 10 1024.0 1024.1 0.0
29/04:00am 7.1 3.0 4.6 84 1.1 SSE 15 19 8 10 1023.9 1024.0 0.0
29/03:30am 6.6 2.6 4.8 88 0.8 SSE 15 17 8 9 1023.9 1024.0 0.0
29/03:00am 6.4 2.7 4.4 87 0.9 SSE 13 17 7 9 1024.1 1024.2 0.0
29/02:30am 7.2 2.8 4.7 84 1.1 SSE 17 20 9 11 1024.2 1024.3 0.0
29/02:00am 7.6 3.2 4.9 83 1.2 SSE 17 22 9 12 1024.2 1024.3 0.0
29/01:30am 7.4 3.5 5.4 87 0.9 SSE 15 19 8 10 1024.1 1024.2 0.0
29/01:00am 7.7 3.6 6.0 89 0.8 SSE 17 24 9 13 1024.0 1024.1 0.0
29/12:30am 8.2 4.2 6.7 90 0.7 SSE 17 24 9 13 1024.0 1024.1 0.0
29/12:00am 7.7 4.4 6.2 90 0.7 SSW 13 15 7 8 1023.8 1023.9 0.0
 
Date/Time
EST
Temp
°C
App
Temp
°C
Dew
Point
°C
Rel
Hum
%
Delta-T
°C
Wind Press
QNH
hPa
Press
MSL
hPa
Rain since
9am
mm
Dir  Spd
km/h
Gust
km/h
Spd
kts
Gust
kts
28/11:30pm 9.4 5.2 7.3 87 1.0 SSE 19 24 10 13 1023.6 1023.7 0.0
28/11:00pm 8.9 6.0 8.0 94 0.4 SSE 13 20 7 11 1023.6 1023.7 0.0
28/10:30pm 8.4 5.2 7.0 91 0.7 S 13 15 7 8 1023.6 1023.7 0.0
28/10:00pm 9.1 5.6 7.4 89 0.8 S 15 19 8 10 1023.6 1023.7 0.0
28/09:30pm 10.0 6.3 7.8 86 1.1 S 17 22 9 12 1023.6 1023.7 0.0
28/09:00pm 11.2 7.9 8.2 82 1.5 SSE 15 20 8 11 1023.5 1023.6 0.0
28/08:30pm 10.9 8.4 8.1 83 1.4 SSE 11 15 6 8 1023.2 1023.3 0.0
28/08:00pm 11.4 9.3 8.4 82 1.5 SSE 9 11 5 6 1023.1 1023.2 0.0
28/07:30pm 11.9 9.0 8.2 78 1.8 SE 13 15 7 8 1022.6 1022.6 0.0
28/07:00pm 11.5 8.6 8.2 80 1.6 SE 13 15 7 8 1022.3 1022.3 0.0
28/06:30pm 12.2 9.3 8.1 76 2.0 SE 13 17 7 9 1021.9 1021.9 0.0
28/06:00pm 13.5 9.3 7.5 67 2.9 SSE 19 24 10 13 1021.5 1021.5 0.0
28/05:30pm 13.9 9.7 8.3 69 2.8 SSE 20 26 11 14 1021.3 1021.3 0.0
28/05:00pm 14.3 9.7 8.0 66 3.1 SSE 22 28 12 15 1021.0 1021.0 0.0
28/04:30pm 14.7 11.1 8.4 66 3.2 SSE 17 22 9 12 1020.9 1020.9 0.0
28/04:00pm 14.4 10.4 8.1 66 3.2 SSE 19 24 10 13 1020.8 1020.8 0.0
28/03:30pm 14.6 9.7 8.5 67 3.1 S 24 32 13 17 1020.7 1020.7 0.0
28/03:00pm 14.2 9.7 8.4 68 2.9 S 22 28 12 15 1020.7 1020.7 0.0
28/02:30pm 14.6 9.7 8.3 66 3.2 S 24 33 13 18 1020.5 1020.6 0.0
28/02:00pm 15.3 10.7 8.3 63 3.5 S 22 30 12 16 1020.5 1020.6 0.0
28/01:30pm 14.8 9.1 8.3 65 3.3 S 28 37 15 20 1020.7 1020.7 0.0
28/01:00pm 15.3 9.9 8.1 62 3.6 S 26 33 14 18 1020.7 1020.7 0.0
28/12:30pm 15.5 10.6 8.3 62 3.7 SSE 24 32 13 17 1020.7 1020.7 0.0
28/12:00pm 15.3 9.5 8.1 62 3.6 S 28 37 15 20 1020.5 1020.6 0.0

Other formats

Comma delimited format used in spreadsheet applications
http://www.bom.gov.au/fwo/IDV60801/IDV60801.94827.axf

JavaScript Object Notation format (JSON) in row-major order
http://www.bom.gov.au/fwo/IDV60801/IDV60801.94827.json

Data quality

Most of these data are generated automatically and are frequently updated. Quality checks on data are not normally performed. It is possible for incorrect values to appear. Refer to information at About Latest Weather Observations and please check the disclaimer before using these data.